Overview Statistics Trail Chart Weather Telemetry Raw packets
 

This is the latest recevied weather packets stored in our database for station/object WW6Q. If no packets are shown the sender has not sent any weather packets the latest 10 day(s).

<< 25 26 27 28 29 30 31 >>
Time Temp. Humidity Pressure Rain* Wind** Luminosity Snow
1788453285 32.78° C 59% 1014.1 hPa 0 mm - 681 W/m² -
1788452981 32.78° C 60% 1014.5 hPa 0 mm - 673 W/m² -
1788452677 32.78° C 61% 1014.5 hPa 0 mm - 664 W/m² -
1788452372 33.89° C 56% 1014.3 hPa 0 mm - 656 W/m² -
1788452068 33.33° C 58% 1014.5 hPa 0 mm - 645 W/m² -
1788451764 33.33° C 59% 1014.7 hPa 0 mm - 634 W/m² -
1788451462 32.78° C 60% 1014.8 hPa 0 mm - 627 W/m² -
1788451161 33.33° C 58% 1014.6 hPa 0 mm - 617 W/m² -
1788450857 32.78° C 59% 1014.5 hPa 0 mm - 616 W/m² -
1788450552 32.78° C 61% 1014.7 hPa 0 mm - 604 W/m² -
1788450249 32.78° C 61% 1014.7 hPa 0 mm - 594 W/m² -
1788449948 32.22° C 61% 1014.8 hPa 0 mm - 582 W/m² -
1788449644 32.22° C 62% 1014.8 hPa 0 mm - 571 W/m² -
1788449341 32.78° C 61% 1014.6 hPa 0 mm - 557 W/m² -
1788449036 32.22° C 61% 1014.8 hPa 0 mm - 545 W/m² -
1788448731 32.22° C 61% 1014.9 hPa 0 mm - 533 W/m² -
1788448426 32.22° C 61% 1014.7 hPa 0 mm - 522 W/m² -
1788448127 32.22° C 60% 1014.8 hPa 0 mm - 510 W/m² -
1788447827 31.67° C 62% 1014.9 hPa 0 mm - 496 W/m² -
1788447521 31.67° C 63% 1014.8 hPa 0 mm - 485 W/m² -
1788447217 31.67° C 62% 1014.7 hPa 0 mm - 470 W/m² -
1788446916 31.67° C 65% 1014.9 hPa 0 mm - 455 W/m² -
1788446611 31.11° C 63% 1014.7 hPa 0 mm - 441 W/m² -
1788446307 30.56° C 64% 1014.7 hPa 0 mm - 428 W/m² -
1788446004 30° C 69% 1014.7 hPa 0 mm - 412 W/m² -

* Rain latest hour (hover to see other rain measurements)
** Current wind speed in m/s (hover to see current wind gust speed)